Terminal Aerodrome Forecast
Issued by NWS

Home | Current Version | Previous Version | Text Only | Print | Product List | Glossary On
Versions: 1 2 3 4 5 6 7 8 9 10 11 12 13 14 15 16 17 18 19 20 21 22
000
FTUS43 KGRB 242147 AAA
TAFMTW
TAF AMD
KMTW 242147Z 2422/2518 21010KT P6SM VCSH BKN050
     FM250200 24004KT P6SM SCT045 BKN080
     FM250800 02006KT P6SM SCT006
      TEMPO 2509/2512 3SM BR BKN005
     FM251400 09009G15KT P6SM SCT018 BKN250=

USA.gov is the U.S. government's official web portal to all federal, state and local government web resources and services.